sensor_id;sensor_type;location;lat;lon;timestamp;pressure;altitude;pressure_sealevel;temperature;humidity
65553;BME280;52465;51.560;14.368;2023-07-31T00:01:33;99948.81;;;23.24;58.69
65553;BME280;52465;51.560;14.368;2023-07-31T00:05:53;99936.75;;;23.21;58.48
65553;BME280;52465;51.560;14.368;2023-07-31T00:09:40;99938.53;;;23.16;58.66
65553;BME280;52465;51.560;14.368;2023-07-31T00:14:16;99926.25;;;23.15;58.68
65553;BME280;52465;51.560;14.368;2023-07-31T00:16:41;99934.81;;;23.17;58.76
65553;BME280;52465;51.560;14.368;2023-07-31T00:23:17;99933.53;;;23.19;58.30
65553;BME280;52465;51.560;14.368;2023-07-31T00:25:42;99933.22;;;23.16;58.75
65553;BME280;52465;51.560;14.368;2023-07-31T00:29:51;99927.88;;;23.16;58.58
65553;BME280;52465;51.560;14.368;2023-07-31T00:32:16;99934.28;;;23.15;58.80
65553;BME280;52465;51.560;14.368;2023-07-31T00:34:42;99914.38;;;23.06;58.59
65553;BME280;52465;51.560;14.368;2023-07-31T00:40:50;99924.06;;;23.12;58.53
65553;BME280;52465;51.560;14.368;2023-07-31T00:46:38;99905.56;;;23.05;58.59
65553;BME280;52465;51.560;14.368;2023-07-31T00:50:14;99906.38;;;23.06;58.66
65553;BME280;52465;51.560;14.368;2023-07-31T00:56:27;99917.38;;;23.09;58.91
65553;BME280;52465;51.560;14.368;2023-07-31T01:02:38;99920.84;;;23.10;58.97
65553;BME280;52465;51.560;14.368;2023-07-31T01:06:52;99914.38;;;23.06;58.58
65553;BME280;52465;51.560;14.368;2023-07-31T01:09:29;99913.56;;;23.05;58.83
65553;BME280;52465;51.560;14.368;2023-07-31T01:18:49;99902.28;;;22.98;58.78
65553;BME280;52465;51.560;14.368;2023-07-31T01:23:34;99909.22;;;22.99;59.08
65553;BME280;52465;51.560;14.368;2023-07-31T01:34:22;99906.25;;;22.95;58.82
65553;BME280;52465;51.560;14.368;2023-07-31T01:36:47;99907.59;;;22.98;58.78
65553;BME280;52465;51.560;14.368;2023-07-31T01:40:52;99906.00;;;22.97;59.02
65553;BME280;52465;51.560;14.368;2023-07-31T01:50:29;99864.69;;;22.66;58.71
65553;BME280;52465;51.560;14.368;2023-07-31T01:52:55;99892.47;;;22.87;58.72
65553;BME280;52465;51.560;14.368;2023-07-31T01:55:23;99894.44;;;22.91;59.02
65553;BME280;52465;51.560;14.368;2023-07-31T01:57:48;99881.81;;;22.87;58.76
65553;BME280;52465;51.560;14.368;2023-07-31T02:01:28;99893.63;;;22.91;58.77
65553;BME280;52465;51.560;14.368;2023-07-31T02:03:53;99884.03;;;22.90;59.05
65553;BME280;52465;51.560;14.368;2023-07-31T02:06:19;99885.31;;;22.87;58.76
65553;BME280;52465;51.560;14.368;2023-07-31T02:19:16;99868.13;;;22.83;59.12
65553;BME280;52465;51.560;14.368;2023-07-31T02:24:22;99846.97;;;22.77;59.03
65553;BME280;52465;51.560;14.368;2023-07-31T02:26:48;99875.91;;;22.85;59.08
65553;BME280;52465;51.560;14.368;2023-07-31T02:29:13;99865.72;;;22.82;58.79
65553;BME280;52465;51.560;14.368;2023-07-31T02:32:49;99873.47;;;22.83;58.81
65553;BME280;52465;51.560;14.368;2023-07-31T02:35:15;99870.00;;;22.83;58.88
65553;BME280;52465;51.560;14.368;2023-07-31T02:38:40;99864.91;;;22.81;59.31
65553;BME280;52465;51.560;14.368;2023-07-31T02:41:06;99844.47;;;22.70;59.14
65553;BME280;52465;51.560;14.368;2023-07-31T02:52:55;99849.16;;;22.80;59.00
65553;BME280;52465;51.560;14.368;2023-07-31T03:06:33;99839.06;;;22.65;59.45
65553;BME280;52465;51.560;14.368;2023-07-31T03:10:51;99848.75;;;22.71;59.11
65553;BME280;52465;51.560;14.368;2023-07-31T03:13:16;99841.81;;;22.70;58.95
65553;BME280;52465;51.560;14.368;2023-07-31T03:21:47;99836.72;;;22.68;59.23
65553;BME280;52465;51.560;14.368;2023-07-31T03:24:12;99848.28;;;22.74;58.79
65553;BME280;52465;51.560;14.368;2023-07-31T03:26:38;99850.38;;;22.72;59.26
65553;BME280;52465;51.560;14.368;2023-07-31T03:29:03;99848.19;;;22.69;59.37
65553;BME280;52465;51.560;14.368;2023-07-31T03:33:18;99849.25;;;22.68;59.21
65553;BME280;52465;51.560;14.368;2023-07-31T03:37:53;99849.56;;;22.71;58.80
65553;BME280;52465;51.560;14.368;2023-07-31T03:40:19;99833.97;;;22.63;59.07
65553;BME280;52465;51.560;14.368;2023-07-31T03:46:36;99849.25;;;22.68;59.17
65553;BME280;52465;51.560;14.368;2023-07-31T03:49:02;99854.59;;;22.68;58.94
65553;BME280;52465;51.560;14.368;2023-07-31T03:51:27;99849.19;;;22.63;58.90
65553;BME280;52465;51.560;14.368;2023-07-31T03:56:03;99826.88;;;22.52;59.26
65553;BME280;52465;51.560;14.368;2023-07-31T03:58:28;99851.59;;;22.64;58.99
65553;BME280;52465;51.560;14.368;2023-07-31T04:00:53;99846.44;;;22.58;58.88
65553;BME280;52465;51.560;14.368;2023-07-31T04:12:16;99841.41;;;22.61;59.28
65553;BME280;52465;51.560;14.368;2023-07-31T04:31:29;99826.31;;;22.50;59.17
65553;BME280;52465;51.560;14.368;2023-07-31T04:39:57;99824.69;;;22.49;58.88
65553;BME280;52465;51.560;14.368;2023-07-31T04:49:38;99835.16;;;22.51;59.22
65553;BME280;52465;51.560;14.368;2023-07-31T04:55:52;99850.66;;;22.54;58.98
65553;BME280;52465;51.560;14.368;2023-07-31T05:03:18;99818.13;;;22.35;59.14
65553;BME280;52465;51.560;14.368;2023-07-31T05:14:01;99812.84;;;22.40;59.23
65553;BME280;52465;51.560;14.368;2023-07-31T05:17:53;99821.16;;;22.43;59.19
65553;BME280;52465;51.560;14.368;2023-07-31T05:24:05;99815.34;;;22.47;59.37
65553;BME280;52465;51.560;14.368;2023-07-31T05:26:30;99823.09;;;22.48;59.02
65553;BME280;52465;51.560;14.368;2023-07-31T05:28:55;99775.03;;;22.26;58.80
65553;BME280;52465;51.560;14.368;2023-07-31T05:36:17;99806.28;;;22.48;59.17
65553;BME280;52465;51.560;14.368;2023-07-31T05:38:43;99795.47;;;22.37;59.20
65553;BME280;52465;51.560;14.368;2023-07-31T05:41:08;99801.19;;;22.46;59.00
65553;BME280;52465;51.560;14.368;2023-07-31T05:45:44;99802.25;;;22.45;58.89
65553;BME280;52465;51.560;14.368;2023-07-31T05:48:10;99799.81;;;22.43;59.37
65553;BME280;52465;51.560;14.368;2023-07-31T05:52:40;99803.88;;;22.46;58.78
65553;BME280;52465;51.560;14.368;2023-07-31T05:59:43;99805.41;;;22.42;59.24
65553;BME280;52465;51.560;14.368;2023-07-31T06:02:08;99799.25;;;22.41;59.07
65553;BME280;52465;51.560;14.368;2023-07-31T06:04:34;99801.13;;;22.41;59.11
65553;BME280;52465;51.560;14.368;2023-07-31T06:06:59;99796.03;;;22.39;59.03
65553;BME280;52465;51.560;14.368;2023-07-31T06:15:18;99792.31;;;22.40;59.09
65553;BME280;52465;51.560;14.368;2023-07-31T06:17:44;99788.78;;;22.35;59.04
65553;BME280;52465;51.560;14.368;2023-07-31T06:29:20;99793.03;;;22.36;58.90
65553;BME280;52465;51.560;14.368;2023-07-31T06:31:46;99795.47;;;22.37;58.73
65553;BME280;52465;51.560;14.368;2023-07-31T06:34:11;99794.41;;;22.38;59.02
65553;BME280;52465;51.560;14.368;2023-07-31T06:41:05;99784.50;;;22.34;58.76
65553;BME280;52465;51.560;14.368;2023-07-31T06:55:23;99793.69;;;22.26;58.77
65553;BME280;52465;51.560;14.368;2023-07-31T06:57:53;99793.22;;;22.29;59.11
65553;BME280;52465;51.560;14.368;2023-07-31T07:02:32;99799.09;;;22.31;58.92
65553;BME280;52465;51.560;14.368;2023-07-31T07:04:57;99792.72;;;22.32;59.13
65553;BME280;52465;51.560;14.368;2023-07-31T07:10:36;99786.22;;;22.23;59.21
65553;BME280;52465;51.560;14.368;2023-07-31T07:13:02;99784.56;;;22.22;59.04
65553;BME280;52465;51.560;14.368;2023-07-31T07:19:26;99802.34;;;22.33;59.03
65553;BME280;52465;51.560;14.368;2023-07-31T07:26:28;99803.88;;;22.29;59.10
65553;BME280;52465;51.560;14.368;2023-07-31T07:28:53;99804.44;;;22.31;58.87
65553;BME280;52465;51.560;14.368;2023-07-31T07:35:21;99807.13;;;22.31;58.90
65553;BME280;52465;51.560;14.368;2023-07-31T07:40:00;99798.31;;;22.31;59.00
65553;BME280;52465;51.560;14.368;2023-07-31T07:42:26;99797.50;;;22.30;59.16
65553;BME280;52465;51.560;14.368;2023-07-31T07:44:51;99780.53;;;22.20;58.76
65553;BME280;52465;51.560;14.368;2023-07-31T07:47:17;99784.56;;;22.22;58.79
65553;BME280;52465;51.560;14.368;2023-07-31T07:49:42;99785.44;;;22.28;58.75
65553;BME280;52465;51.560;14.368;2023-07-31T07:59:52;99784.66;;;22.27;58.93
65553;BME280;52465;51.560;14.368;2023-07-31T08:08:08;99782.97;;;22.21;58.58
65553;BME280;52465;51.560;14.368;2023-07-31T08:17:43;99764.47;;;22.14;58.79
65553;BME280;52465;51.560;14.368;2023-07-31T08:20:09;99775.75;;;22.22;58.72
65553;BME280;52465;51.560;14.368;2023-07-31T08:24:32;99784.09;;;22.25;59.17
65553;BME280;52465;51.560;14.368;2023-07-31T08:30:23;99781.44;;;22.25;58.94
65553;BME280;52465;51.560;14.368;2023-07-31T08:34:52;99781.44;;;22.25;58.81
65553;BME280;52465;51.560;14.368;2023-07-31T08:37:18;99781.97;;;22.27;59.28
65553;BME280;52465;51.560;14.368;2023-07-31T08:39:43;99779.00;;;22.24;58.83
65553;BME280;52465;51.560;14.368;2023-07-31T08:42:09;99787.09;;;22.29;59.10
65553;BME280;52465;51.560;14.368;2023-07-31T08:44:34;99786.28;;;22.28;59.14
65553;BME280;52465;51.560;14.368;2023-07-31T08:50:29;99753.00;;;22.14;58.95
65553;BME280;52465;51.560;14.368;2023-07-31T08:58:48;99762.28;;;22.28;58.70
65553;BME280;52465;51.560;14.368;2023-07-31T09:01:14;99761.44;;;22.28;58.69
65553;BME280;52465;51.560;14.368;2023-07-31T09:05:42;99752.09;;;22.25;58.93
65553;BME280;52465;51.560;14.368;2023-07-31T09:11:50;99766.31;;;22.31;58.59
65553;BME280;52465;51.560;14.368;2023-07-31T09:14:17;99761.44;;;22.28;58.93
65553;BME280;52465;51.560;14.368;2023-07-31T09:16:53;99766.47;;;22.24;58.95
65553;BME280;52465;51.560;14.368;2023-07-31T09:19:39;99755.81;;;22.24;58.69
65553;BME280;52465;51.560;14.368;2023-07-31T09:27:48;99760.66;;;22.27;58.85
65553;BME280;52465;51.560;14.368;2023-07-31T09:30:14;99765.16;;;22.27;58.71
65553;BME280;52465;51.560;14.368;2023-07-31T09:32:39;99759.03;;;22.26;59.06
65553;BME280;52465;51.560;14.368;2023-07-31T09:52:40;99740.69;;;22.30;58.63
65553;BME280;52465;51.560;14.368;2023-07-31T09:57:39;99723.25;;;22.22;58.55
65553;BME280;52465;51.560;14.368;2023-07-31T10:00:06;99753.03;;;22.36;58.56
65553;BME280;52465;51.560;14.368;2023-07-31T10:08:27;99736.31;;;22.40;58.79
65553;BME280;52465;51.560;14.368;2023-07-31T10:12:14;99726.69;;;22.39;58.39
65553;BME280;52465;51.560;14.368;2023-07-31T10:14:41;99727.25;;;22.41;58.67
65553;BME280;52465;51.560;14.368;2023-07-31T10:17:08;99726.44;;;22.41;58.31
65553;BME280;52465;51.560;14.368;2023-07-31T10:21:59;99704.97;;;22.31;58.60
65553;BME280;52465;51.560;14.368;2023-07-31T10:24:25;99707.38;;;22.32;58.40
65553;BME280;52465;51.560;14.368;2023-07-31T10:26:52;99723.53;;;22.42;58.72
65553;BME280;52465;51.560;14.368;2023-07-31T10:29:19;99727.00;;;22.43;58.33
65553;BME280;52465;51.560;14.368;2023-07-31T10:31:48;99727.50;;;22.40;58.40
65553;BME280;52465;51.560;14.368;2023-07-31T10:34:14;99706.50;;;22.27;58.65
65553;BME280;52465;51.560;14.368;2023-07-31T10:41:16;99717.81;;;22.34;58.79
65553;BME280;52465;51.560;14.368;2023-07-31T10:45:13;99717.56;;;22.35;58.63
65553;BME280;52465;51.560;14.368;2023-07-31T10:49:46;99717.00;;;22.33;58.47
65553;BME280;52465;51.560;14.368;2023-07-31T10:52:13;99730.47;;;22.43;58.22
65553;BME280;52465;51.560;14.368;2023-07-31T10:59:01;99716.84;;;22.40;58.43
65553;BME280;52465;51.560;14.368;2023-07-31T11:06:39;99686.56;;;22.29;58.30
65553;BME280;52465;51.560;14.368;2023-07-31T11:15:21;99698.72;;;22.42;58.14
65553;BME280;52465;51.560;14.368;2023-07-31T11:22:17;99704.31;;;22.40;58.03
65553;BME280;52465;51.560;14.368;2023-07-31T11:25:49;99663.97;;;22.15;58.30
65553;BME280;52465;51.560;14.368;2023-07-31T11:28:16;99706.16;;;22.40;58.19
65553;BME280;52465;51.560;14.368;2023-07-31T11:30:44;99701.38;;;22.42;58.17
65553;BME280;52465;51.560;14.368;2023-07-31T11:33:11;99710.19;;;22.42;57.97
65553;BME280;52465;51.560;14.368;2023-07-31T11:35:41;99708.56;;;22.41;57.91
65553;BME280;52465;51.560;14.368;2023-07-31T11:42:23;99677.06;;;22.38;57.71
65553;BME280;52465;51.560;14.368;2023-07-31T11:46:34;99681.38;;;22.44;58.14
65553;BME280;52465;51.560;14.368;2023-07-31T11:49:00;99678.25;;;22.48;58.20
65553;BME280;52465;51.560;14.368;2023-07-31T11:51:26;99691.03;;;22.46;57.81
65553;BME280;52465;51.560;14.368;2023-07-31T11:55:59;99684.13;;;22.50;58.07
65553;BME280;52465;51.560;14.368;2023-07-31T12:02:12;99677.19;;;22.49;57.66
65553;BME280;52465;51.560;14.368;2023-07-31T12:09:01;99675.38;;;22.54;57.65
65553;BME280;52465;51.560;14.368;2023-07-31T12:11:26;99671.84;;;22.49;57.75
65553;BME280;52465;51.560;14.368;2023-07-31T12:17:06;99658.81;;;22.52;57.61
65553;BME280;52465;51.560;14.368;2023-07-31T12:28:05;99662.34;;;22.58;57.91
65553;BME280;52465;51.560;14.368;2023-07-31T12:34:42;99660.50;;;22.58;57.50
65553;BME280;52465;51.560;14.368;2023-07-31T12:41:26;99640.69;;;22.54;57.79
65553;BME280;52465;51.560;14.368;2023-07-31T12:50:09;99639.75;;;22.65;57.44
65553;BME280;52465;51.560;14.368;2023-07-31T12:52:35;99640.00;;;22.64;57.66
65553;BME280;52465;51.560;14.368;2023-07-31T13:01:04;99621.88;;;22.66;57.72
65553;BME280;52465;51.560;14.368;2023-07-31T13:06:45;99614.94;;;22.65;57.54
65553;BME280;52465;51.560;14.368;2023-07-31T13:11:04;99611.19;;;22.66;57.47
65553;BME280;52465;51.560;14.368;2023-07-31T13:16:41;99609.59;;;22.65;57.38
65553;BME280;52465;51.560;14.368;2023-07-31T13:19:06;99609.09;;;22.68;57.70
65553;BME280;52465;51.560;14.368;2023-07-31T13:26:46;99597.63;;;22.67;57.51
65553;BME280;52465;51.560;14.368;2023-07-31T13:30:58;99587.66;;;22.58;57.41
65553;BME280;52465;51.560;14.368;2023-07-31T13:34:43;99569.41;;;22.50;57.42
65553;BME280;52465;51.560;14.368;2023-07-31T13:39:04;99578.66;;;22.64;57.27
65553;BME280;52465;51.560;14.368;2023-07-31T13:42:52;99574.97;;;22.70;57.17
65553;BME280;52465;51.560;14.368;2023-07-31T13:53:56;99554.94;;;22.67;57.23
65553;BME280;52465;51.560;14.368;2023-07-31T13:59:23;99552.50;;;22.66;57.21
65553;BME280;52465;51.560;14.368;2023-07-31T14:07:39;99554.97;;;22.73;57.31
65553;BME280;52465;51.560;14.368;2023-07-31T14:10:05;99547.75;;;22.68;57.79
65553;BME280;52465;51.560;14.368;2023-07-31T14:13:46;99561.63;;;22.70;57.77
65553;BME280;52465;51.560;14.368;2023-07-31T14:16:12;99541.28;;;22.64;57.41
65553;BME280;52465;51.560;14.368;2023-07-31T14:18:37;99540.53;;;22.68;57.86
65553;BME280;52465;51.560;14.368;2023-07-31T14:21:02;99544.75;;;22.64;57.53
65553;BME280;52465;51.560;14.368;2023-07-31T14:32:24;99536.28;;;22.73;57.81
65553;BME280;52465;51.560;14.368;2023-07-31T14:36:42;99544.81;;;22.69;57.46
65553;BME280;52465;51.560;14.368;2023-07-31T14:41:14;99542.69;;;22.71;57.66
65553;BME280;52465;51.560;14.368;2023-07-31T14:43:40;99539.72;;;22.68;57.56
65553;BME280;52465;51.560;14.368;2023-07-31T14:49:40;99527.44;;;22.67;57.57
65553;BME280;52465;51.560;14.368;2023-07-31T14:56:16;99525.38;;;22.74;57.63
65553;BME280;52465;51.560;14.368;2023-07-31T15:01:51;99487.41;;;22.67;57.17
65553;BME280;52465;51.560;14.368;2023-07-31T15:06:00;99507.78;;;22.78;57.15
65553;BME280;52465;51.560;14.368;2023-07-31T15:08:26;99486.59;;;22.66;57.32
65553;BME280;52465;51.560;14.368;2023-07-31T15:12:14;99495.25;;;22.79;57.48
65553;BME280;52465;51.560;14.368;2023-07-31T15:20:48;99469.38;;;22.79;57.50
65553;BME280;52465;51.560;14.368;2023-07-31T15:27:46;99473.09;;;22.78;57.33
65553;BME280;52465;51.560;14.368;2023-07-31T15:37:03;99464.75;;;22.69;57.44
65553;BME280;52465;51.560;14.368;2023-07-31T15:46:03;99470.09;;;22.69;57.42
65553;BME280;52465;51.560;14.368;2023-07-31T16:01:20;99447.94;;;22.69;57.70
65553;BME280;52465;51.560;14.368;2023-07-31T16:03:46;99437.28;;;22.69;57.59
65553;BME280;52465;51.560;14.368;2023-07-31T16:10:59;99447.72;;;22.76;57.33
65553;BME280;52465;51.560;14.368;2023-07-31T16:18:40;99432.78;;;22.75;57.65
65553;BME280;52465;51.560;14.368;2023-07-31T16:21:05;99437.84;;;22.76;57.27
65553;BME280;52465;51.560;14.368;2023-07-31T16:25:33;99428.22;;;22.70;57.60
65553;BME280;52465;51.560;14.368;2023-07-31T16:30:06;99429.84;;;22.76;57.08
65553;BME280;52465;51.560;14.368;2023-07-31T16:34:19;99422.38;;;22.78;57.19
65553;BME280;52465;51.560;14.368;2023-07-31T16:39:45;99390.69;;;22.50;57.18
65553;BME280;52465;51.560;14.368;2023-07-31T16:45:22;99406.81;;;22.65;57.24
65553;BME280;52465;51.560;14.368;2023-07-31T16:49:25;99382.66;;;22.44;57.47
65553;BME280;52465;51.560;14.368;2023-07-31T16:51:51;99441.31;;;22.77;57.03
65553;BME280;52465;51.560;14.368;2023-07-31T16:54:16;99434.66;;;22.74;57.09
65553;BME280;52465;51.560;14.368;2023-07-31T17:07:50;99455.69;;;22.70;56.96
65553;BME280;52465;51.560;14.368;2023-07-31T17:12:49;99463.75;;;22.76;57.38
65553;BME280;52465;51.560;14.368;2023-07-31T17:15:15;99451.38;;;22.64;57.17
65553;BME280;52465;51.560;14.368;2023-07-31T17:24:53;99439.31;;;22.57;57.21
65553;BME280;52465;51.560;14.368;2023-07-31T17:27:18;99464.50;;;22.71;57.00
65553;BME280;52465;51.560;14.368;2023-07-31T17:29:43;99457.03;;;22.68;57.25
65553;BME280;52465;51.560;14.368;2023-07-31T17:32:09;99445.25;;;22.64;57.23
65553;BME280;52465;51.560;14.368;2023-07-31T17:34:34;99467.97;;;22.71;56.92
65553;BME280;52465;51.560;14.368;2023-07-31T17:37:00;99457.56;;;22.70;57.07
65553;BME280;52465;51.560;14.368;2023-07-31T17:41:14;99446.88;;;22.70;56.95
65553;BME280;52465;51.560;14.368;2023-07-31T17:43:39;99465.56;;;22.70;57.09
65553;BME280;52465;51.560;14.368;2023-07-31T17:55:14;99458.63;;;22.69;56.85
65553;BME280;52465;51.560;14.368;2023-07-31T18:00:23;99452.94;;;22.60;56.89
65553;BME280;52465;51.560;14.368;2023-07-31T18:16:59;99453.78;;;22.66;56.96
65553;BME280;52465;51.560;14.368;2023-07-31T18:20:35;99452.19;;;22.65;57.29
65553;BME280;52465;51.560;14.368;2023-07-31T18:30:17;99435.63;;;22.63;57.07
65553;BME280;52465;51.560;14.368;2023-07-31T18:34:08;99434.31;;;22.65;56.98
65553;BME280;52465;51.560;14.368;2023-07-31T18:39:22;99380.47;;;22.36;57.13
65553;BME280;52465;51.560;14.368;2023-07-31T18:52:40;99419.91;;;22.66;57.08
65553;BME280;52465;51.560;14.368;2023-07-31T18:55:06;99421.22;;;22.64;57.40
65553;BME280;52465;51.560;14.368;2023-07-31T18:57:32;99412.69;;;22.62;57.26
65553;BME280;52465;51.560;14.368;2023-07-31T19:01:44;99401.69;;;22.53;57.50
65553;BME280;52465;51.560;14.368;2023-07-31T19:06:00;99415.34;;;22.62;57.57
65553;BME280;52465;51.560;14.368;2023-07-31T19:09:59;99411.84;;;22.61;57.23
65553;BME280;52465;51.560;14.368;2023-07-31T19:17:30;99406.25;;;22.58;57.44
65553;BME280;52465;51.560;14.368;2023-07-31T19:26:31;99358.34;;;22.36;57.25
65553;BME280;52465;51.560;14.368;2023-07-31T19:28:56;99395.84;;;22.61;57.77
65553;BME280;52465;51.560;14.368;2023-07-31T19:36:00;99387.84;;;22.61;57.20
65553;BME280;52465;51.560;14.368;2023-07-31T19:40:33;99381.16;;;22.59;57.27
65553;BME280;52465;51.560;14.368;2023-07-31T19:42:59;99374.78;;;22.60;57.68
65553;BME280;52465;51.560;14.368;2023-07-31T19:45:24;99374.25;;;22.58;57.36
65553;BME280;52465;51.560;14.368;2023-07-31T19:47:50;99371.56;;;22.58;57.39
65553;BME280;52465;51.560;14.368;2023-07-31T19:50:15;99368.34;;;22.56;57.86
65553;BME280;52465;51.560;14.368;2023-07-31T19:52:40;99382.25;;;22.58;57.60
65553;BME280;52465;51.560;14.368;2023-07-31T20:00:40;99374.78;;;22.60;57.58
65553;BME280;52465;51.560;14.368;2023-07-31T20:04:43;99369.16;;;22.56;57.55
65553;BME280;52465;51.560;14.368;2023-07-31T20:07:08;99363.56;;;22.58;57.42
65553;BME280;52465;51.560;14.368;2023-07-31T20:09:34;99358.50;;;22.56;57.64
65553;BME280;52465;51.560;14.368;2023-07-31T20:25:16;99316.53;;;22.47;57.62
65553;BME280;52465;51.560;14.368;2023-07-31T20:27:42;99321.66;;;22.53;57.48
65553;BME280;52465;51.560;14.368;2023-07-31T20:32:19;99301.34;;;22.47;57.70
65553;BME280;52465;51.560;14.368;2023-07-31T20:47:34;99287.50;;;22.55;57.54
65553;BME280;52465;51.560;14.368;2023-07-31T20:50:00;99278.97;;;22.53;57.39
65553;BME280;52465;51.560;14.368;2023-07-31T20:54:23;99279.75;;;22.49;57.51
65553;BME280;52465;51.560;14.368;2023-07-31T20:58:37;99287.78;;;22.54;57.60
65553;BME280;52465;51.560;14.368;2023-07-31T21:01:03;99285.91;;;22.54;58.01
65553;BME280;52465;51.560;14.368;2023-07-31T21:04:51;99278.66;;;22.50;57.92
65553;BME280;52465;51.560;14.368;2023-07-31T21:08:55;99261.88;;;22.49;57.48
65553;BME280;52465;51.560;14.368;2023-07-31T21:15:17;99227.44;;;22.42;57.81
65553;BME280;52465;51.560;14.368;2023-07-31T21:17:43;99232.78;;;22.48;57.52
65553;BME280;52465;51.560;14.368;2023-07-31T21:20:08;99231.72;;;22.49;57.74
65553;BME280;52465;51.560;14.368;2023-07-31T21:24:13;99236.78;;;22.50;57.80
65553;BME280;52465;51.560;14.368;2023-07-31T21:29:56;99223.19;;;22.47;57.95
65553;BME280;52465;51.560;14.368;2023-07-31T21:47:31;99211.72;;;22.46;57.58
65553;BME280;52465;51.560;14.368;2023-07-31T21:49:57;99208.78;;;22.48;58.06
65553;BME280;52465;51.560;14.368;2023-07-31T22:00:35;99190.03;;;22.32;57.96
65553;BME280;52465;51.560;14.368;2023-07-31T22:23:01;99176.00;;;22.47;58.38
65553;BME280;52465;51.560;14.368;2023-07-31T22:25:27;99181.59;;;22.46;58.37
65553;BME280;52465;51.560;14.368;2023-07-31T22:27:52;99182.38;;;22.46;58.14
65553;BME280;52465;51.560;14.368;2023-07-31T22:32:04;99177.84;;;22.47;58.48
65553;BME280;52465;51.560;14.368;2023-07-31T22:35:40;99180.53;;;22.47;58.02
65553;BME280;52465;51.560;14.368;2023-07-31T22:38:05;99164.50;;;22.41;58.30
65553;BME280;52465;51.560;14.368;2023-07-31T22:51:27;99154.13;;;22.45;58.13
65553;BME280;52465;51.560;14.368;2023-07-31T23:00:02;99140.22;;;22.43;58.20
65553;BME280;52465;51.560;14.368;2023-07-31T23:03:58;99140.75;;;22.40;58.61
65553;BME280;52465;51.560;14.368;2023-07-31T23:12:27;99135.13;;;22.36;58.75
65553;BME280;52465;51.560;14.368;2023-07-31T23:14:52;99136.75;;;22.37;58.64
65553;BME280;52465;51.560;14.368;2023-07-31T23:20:55;99144.75;;;22.42;58.55
65553;BME280;52465;51.560;14.368;2023-07-31T23:25:47;99131.41;;;22.37;58.48
65553;BME280;52465;51.560;14.368;2023-07-31T23:30:06;99134.63;;;22.39;58.77
65553;BME280;52465;51.560;14.368;2023-07-31T23:46:25;99115.69;;;22.36;58.32
65553;BME280;52465;51.560;14.368;2023-07-31T23:48:50;99125.56;;;22.40;58.75
